createdAt,value
2022-09-03T00:00:00.191Z,87.4
2022-09-03T00:05:00.174Z,87.4
2022-09-03T00:10:00.235Z,87.1
2022-09-03T00:15:00.186Z,87.4
2022-09-03T00:20:00.181Z,87.4
2022-09-03T00:25:00.168Z,87.4
2022-09-03T00:30:00.187Z,87.8
2022-09-03T00:35:00.177Z,87.7
2022-09-03T00:40:00.339Z,87.7
2022-09-03T00:45:00.173Z,87.8
2022-09-03T00:50:00.177Z,87.1
2022-09-03T00:55:00.181Z,87.4
2022-09-03T01:00:00.176Z,87.8
2022-09-03T01:05:00.198Z,87.8
2022-09-03T01:10:00.176Z,87.8
2022-09-03T01:15:00.172Z,87.2
2022-09-03T01:20:01.014Z,87.2
2022-09-03T01:25:00.434Z,86.5
2022-09-03T01:30:00.189Z,86.6
2022-09-03T01:35:00.183Z,86.6
2022-09-03T01:40:00.366Z,85.9
2022-09-03T01:45:00.171Z,85.9
2022-09-03T01:50:00.175Z,85.9
2022-09-03T01:55:00.166Z,86.6
2022-09-03T02:00:00.186Z,86.6
2022-09-03T02:05:00.311Z,86.5
2022-09-03T02:10:00.323Z,86.6
2022-09-03T02:15:00.159Z,86.9
2022-09-03T02:20:00.160Z,87.2
2022-09-03T02:25:00.182Z,87.5
2022-09-03T02:30:00.205Z,87.5
2022-09-03T02:35:00.165Z,88.2
2022-09-03T02:40:00.269Z,87.9
2022-09-03T02:45:00.169Z,87.2
2022-09-03T02:50:00.207Z,87.2
2022-09-03T02:55:00.190Z,86.6
2022-09-03T03:00:00.187Z,87.6
2022-09-03T03:05:00.154Z,87.9
2022-09-03T03:10:00.169Z,87.9
2022-09-03T03:15:00.159Z,87.3
2022-09-03T03:20:00.163Z,87.9
2022-09-03T03:25:00.197Z,87.2
2022-09-03T03:30:00.219Z,87.6
2022-09-03T03:35:00.217Z,87.9
2022-09-03T03:40:00.299Z,87.9
2022-09-03T03:45:00.181Z,87.6
2022-09-03T03:50:00.199Z,87.9
2022-09-03T03:55:00.188Z,87.9
2022-09-03T04:00:00.370Z,87.9
2022-09-03T04:05:00.267Z,87.2
2022-09-03T04:10:00.269Z,88.2
2022-09-03T04:15:00.273Z,88.8
2022-09-03T04:20:00.171Z,89.2
2022-09-03T04:25:00.861Z,88.9
2022-09-03T04:30:00.155Z,88.6
2022-09-03T04:35:00.217Z,88.6
2022-09-03T04:40:00.348Z,89.2
2022-09-03T04:45:00.156Z,87.9
2022-09-03T04:50:00.166Z,88
2022-09-03T04:55:00.177Z,88
2022-09-03T05:00:00.156Z,88.6
2022-09-03T05:05:00.185Z,88.6
2022-09-03T05:10:00.183Z,89.6
2022-09-03T05:15:00.160Z,89.3
2022-09-03T05:20:00.195Z,89.6
2022-09-03T05:25:00.158Z,89.9
2022-09-03T05:30:00.176Z,89.3
2022-09-03T05:35:00.151Z,89.3
2022-09-03T05:40:00.276Z,89.9
2022-09-03T05:45:00.158Z,89
2022-09-03T05:50:00.170Z,89.7
2022-09-03T05:55:00.162Z,89.3
2022-09-03T06:00:00.155Z,89.4
2022-09-03T06:05:00.168Z,89.1
2022-09-03T06:10:00.165Z,90.1
2022-09-03T06:15:00.165Z,89.8
2022-09-03T06:20:00.158Z,88.8
2022-09-03T06:25:00.150Z,89.2
2022-09-03T06:30:00.179Z,87.3
2022-09-03T06:35:00.448Z,88.2
2022-09-03T06:40:00.303Z,87.6
2022-09-03T06:45:00.185Z,87.6
2022-09-03T06:50:00.188Z,87.6
2022-09-03T06:55:00.156Z,87.3
2022-09-03T07:00:00.189Z,87.3
2022-09-03T07:05:00.159Z,87
2022-09-03T07:10:00.179Z,86.4
2022-09-03T07:15:00.157Z,86.4
2022-09-03T07:20:00.174Z,86.8
2022-09-03T07:25:00.169Z,86.8
2022-09-03T07:30:00.156Z,86.1
2022-09-03T07:45:00.151Z,86.5
2022-09-03T07:50:00.151Z,86.5
2022-09-03T07:55:00.244Z,86.5
2022-09-03T08:00:00.162Z,86.5
2022-09-03T08:05:00.226Z,85.3
2022-09-03T08:10:00.176Z,85
2022-09-03T08:15:00.177Z,83.8
2022-09-03T08:25:00.312Z,81
2022-09-03T08:30:00.184Z,81
2022-09-03T08:35:00.690Z,80.1
2022-09-03T08:40:00.563Z,79.2
2022-09-03T08:45:00.154Z,79.3
2022-09-03T08:50:00.170Z,75.5
2022-09-03T08:55:00.174Z,75.2
2022-09-03T09:00:00.209Z,74
2022-09-03T09:05:00.160Z,72.5
2022-09-03T09:10:00.172Z,69.9
2022-09-03T09:15:00.166Z,71.2
2022-09-03T09:20:00.163Z,67
2022-09-03T09:25:00.170Z,67.6
2022-09-03T09:30:00.170Z,69
2022-09-03T09:35:00.210Z,70
2022-09-03T09:40:00.291Z,69.7
2022-09-03T09:45:00.188Z,67.4
2022-09-03T09:50:00.183Z,67.5
2022-09-03T09:55:00.166Z,66.1
2022-09-03T10:00:00.193Z,67.2
2022-09-03T10:05:00.161Z,67.1
2022-09-03T10:10:00.201Z,68.1
2022-09-03T10:15:00.260Z,68.6
2022-09-03T10:20:06.486Z,71.1
2022-09-03T10:30:00.187Z,74.7
2022-09-03T10:35:00.190Z,76.1
2022-09-03T10:40:00.287Z,78.6
2022-09-03T10:45:00.173Z,79.5
2022-09-03T10:50:00.170Z,80.8
2022-09-03T10:55:00.166Z,80.8
2022-09-03T11:00:00.192Z,82.2
2022-09-03T11:05:00.163Z,80.3
2022-09-03T11:10:00.160Z,80.4
2022-09-03T11:15:00.168Z,79.8
2022-09-03T11:20:02.043Z,74.1
2022-09-03T11:25:00.223Z,76.1
2022-09-03T11:30:00.239Z,76.4
2022-09-03T11:35:00.197Z,74.2
2022-09-03T11:40:00.315Z,74.9
2022-09-03T11:45:00.180Z,74.6
2022-09-03T11:50:00.172Z,74.7
2022-09-03T11:55:00.170Z,70.5
2022-09-03T12:00:00.834Z,69.9
2022-09-03T12:05:00.575Z,72.5
2022-09-03T12:10:00.213Z,67.4
2022-09-03T12:15:00.165Z,69.1
2022-09-03T12:20:00.186Z,70.5
2022-09-03T12:25:00.198Z,70.8
2022-09-03T12:30:00.445Z,71.7
2022-09-03T12:35:00.159Z,71.4
2022-09-03T12:40:08.723Z,69.8
2022-09-03T12:45:00.187Z,69.2
2022-09-03T12:50:00.169Z,69.2
2022-09-03T12:55:00.177Z,69.1
2022-09-03T13:00:00.191Z,71
2022-09-03T13:05:00.189Z,71.3
2022-09-03T13:10:00.167Z,70.4
2022-09-03T13:15:00.167Z,69.2
2022-09-03T13:20:00.209Z,67.9
2022-09-03T13:25:00.166Z,64.8
2022-09-03T13:30:00.173Z,63.5
2022-09-03T13:35:00.162Z,65.2
2022-09-03T13:40:00.264Z,62.9
2022-09-03T13:45:00.772Z,61.6
2022-09-03T13:50:01.503Z,62.9
2022-09-03T13:55:00.146Z,63.6
2022-09-03T14:00:00.184Z,61.7
2022-09-03T14:05:00.174Z,59.1
2022-09-03T14:10:00.195Z,60.3
2022-09-03T14:15:00.224Z,60.7
2022-09-03T14:20:00.160Z,60.4
2022-09-03T14:25:00.165Z,60.7
2022-09-03T14:30:00.167Z,60.3
2022-09-03T14:35:00.168Z,61.6
2022-09-03T14:40:00.255Z,62.6
2022-09-03T14:45:00.165Z,61.9
2022-09-03T14:50:00.190Z,62.2
2022-09-03T14:55:00.186Z,62.9
2022-09-03T15:00:00.160Z,63.5
2022-09-03T15:05:00.169Z,62.8
2022-09-03T15:10:00.165Z,58.4
2022-09-03T15:15:00.171Z,58.4
2022-09-03T15:20:00.216Z,60.4
2022-09-03T15:25:00.162Z,61.3
2022-09-03T15:30:00.373Z,63.5
2022-09-03T15:35:00.161Z,62.9
2022-09-03T15:40:00.410Z,63.5
2022-09-03T15:45:00.165Z,61.9
2022-09-03T15:50:00.169Z,62.9
2022-09-03T15:55:00.162Z,62.9
2022-09-03T16:00:00.197Z,62.9
2022-09-03T16:05:00.159Z,63.5
2022-09-03T16:10:23.289Z,63.5
2022-09-03T16:15:00.162Z,65.4
2022-09-03T16:20:00.186Z,64.8
2022-09-03T16:25:00.166Z,63.3
2022-09-03T16:30:00.206Z,64.9
2022-09-03T16:35:00.170Z,66.1
2022-09-03T16:40:00.366Z,68
2022-09-03T16:45:00.172Z,68.6
2022-09-03T16:50:00.163Z,68.6
2022-09-03T16:55:00.165Z,68.6
2022-09-03T17:00:00.195Z,69.8
2022-09-03T17:05:00.203Z,70.4
2022-09-03T17:10:00.185Z,71.7
2022-09-03T17:15:00.168Z,73
2022-09-03T17:20:00.183Z,73
2022-09-03T17:25:00.189Z,73.6
2022-09-03T17:30:00.189Z,73.6
2022-09-03T17:35:00.198Z,74.2
2022-09-03T17:40:00.293Z,74.8
2022-09-03T17:45:00.176Z,75.4
2022-09-03T17:50:00.179Z,76
2022-09-03T17:55:00.172Z,76.6
2022-09-03T18:00:00.180Z,77.5
2022-09-03T18:05:00.164Z,77.8
2022-09-03T18:10:00.191Z,78.1
2022-09-03T18:15:00.170Z,78.4
2022-09-03T18:20:00.176Z,78.4
2022-09-03T18:25:00.172Z,79
2022-09-03T18:30:00.169Z,79.6
2022-09-03T18:35:00.171Z,79.6
2022-09-03T18:40:00.314Z,80.2
2022-09-03T18:45:18.712Z,80.2
2022-09-03T18:50:00.257Z,80.8
2022-09-03T18:55:08.767Z,81.4
2022-09-03T19:00:00.932Z,82.6
2022-09-03T19:05:00.215Z,82
2022-09-03T19:10:00.254Z,82
2022-09-03T19:15:00.181Z,82.6
2022-09-03T19:20:00.177Z,82.6
2022-09-03T19:25:00.166Z,82
2022-09-03T19:30:00.385Z,82
2022-09-03T19:35:00.185Z,83.2
2022-09-03T19:40:00.314Z,83.2
2022-09-03T19:45:00.174Z,83.8
2022-09-03T19:50:00.172Z,83.8
2022-09-03T19:55:00.173Z,84.4
2022-09-03T20:00:00.171Z,83.7
2022-09-03T20:05:00.171Z,84.4
2022-09-03T20:10:00.171Z,84.6
2022-09-03T20:15:00.190Z,84.9
2022-09-03T20:20:00.186Z,84.9
2022-09-03T20:25:00.308Z,85.8
2022-09-03T20:30:00.163Z,85.5
2022-09-03T20:35:00.167Z,85.8
2022-09-03T20:40:00.285Z,86.1
2022-09-03T20:45:00.278Z,86.7
2022-09-03T20:50:00.176Z,87.3
2022-09-03T20:55:00.195Z,87.6
2022-09-03T21:00:00.222Z,88.6
2022-09-03T21:05:00.167Z,89.2
2022-09-03T21:10:00.217Z,89.2
2022-09-03T21:15:00.183Z,88.9
2022-09-03T21:20:00.176Z,89.2
2022-09-03T21:25:00.178Z,89.2
2022-09-03T21:30:00.208Z,89.2
2022-09-03T21:35:00.187Z,89.2
2022-09-03T21:40:00.327Z,89.2
2022-09-03T21:45:00.176Z,89.8
2022-09-03T21:50:00.189Z,89.7
2022-09-03T21:55:00.193Z,90.4
2022-09-03T22:00:00.174Z,90.1
2022-09-03T22:05:00.187Z,90.1
2022-09-03T22:10:00.190Z,89.7
2022-09-03T22:15:00.168Z,89.7
2022-09-03T22:20:00.185Z,90.3
2022-09-03T22:25:00.177Z,90.4
2022-09-03T22:30:00.167Z,90
2022-09-03T22:35:00.206Z,90.3
2022-09-03T22:40:00.313Z,89.7
2022-09-03T22:45:00.185Z,89.7
2022-09-03T22:50:00.177Z,90
2022-09-03T22:55:00.189Z,90.6
2022-09-03T23:00:00.181Z,90.9
2022-09-03T23:05:00.183Z,90.9
2022-09-03T23:10:00.181Z,90.9
2022-09-03T23:15:00.170Z,90.9
2022-09-03T23:20:00.295Z,90.9
2022-09-03T23:25:00.184Z,90.9
2022-09-03T23:30:00.198Z,91.5
2022-09-03T23:35:00.177Z,90.9
2022-09-03T23:40:00.341Z,91.5
2022-09-03T23:45:00.251Z,91.2
2022-09-03T23:50:00.175Z,91.5
2022-09-03T23:55:00.166Z,91.8
